createdAt,value
2019-03-01T00:01:03.959Z,6.71
2019-03-01T00:03:37.525Z,6.64
2019-03-01T00:06:45.865Z,6.63
2019-03-01T00:10:16.258Z,6.57
2019-03-01T00:13:47.308Z,6.56
2019-03-01T00:17:26.683Z,6.48
2019-03-01T00:21:02.867Z,6.47
2019-03-01T00:24:16.908Z,6.50
2019-03-01T00:27:31.192Z,6.48
2019-03-01T00:31:20.046Z,6.41
2019-03-01T00:34:43.726Z,6.49
2019-03-01T00:38:06.420Z,6.52
2019-03-01T00:41:50.160Z,6.60
2019-03-01T00:44:48.960Z,6.60
2019-03-01T00:47:20.882Z,6.59
2019-03-01T00:49:52.751Z,6.61
2019-03-01T00:52:24.564Z,6.59
2019-03-01T00:54:56.477Z,6.63
2019-03-01T00:57:28.308Z,6.65
2019-03-01T01:00:00.489Z,6.70
2019-03-01T01:02:32.843Z,6.79
2019-03-01T01:05:05.306Z,6.74
2019-03-01T01:07:37.222Z,6.70
2019-03-01T01:10:09.024Z,6.71
2019-03-01T01:12:42.393Z,6.66
2019-03-01T01:15:14.315Z,6.66
2019-03-01T01:17:46.119Z,6.72
2019-03-01T01:20:17.988Z,6.66
2019-03-01T01:22:49.826Z,6.56
2019-03-01T01:25:21.648Z,6.64
2019-03-01T01:27:53.494Z,6.58
2019-03-01T01:30:25.404Z,6.63
2019-03-01T01:32:58.228Z,6.46
2019-03-01T01:35:32.612Z,6.44
2019-03-01T01:38:04.468Z,6.44
2019-03-01T01:40:36.210Z,6.29
2019-03-01T01:43:08.072Z,6.14
2019-03-01T01:45:40.012Z,6.12
2019-03-01T01:48:11.815Z,6.04
2019-03-01T01:50:44.712Z,6.12
2019-03-01T01:53:16.540Z,6.09
2019-03-01T01:55:48.362Z,6.05
2019-03-01T01:58:20.316Z,6.09
2019-03-01T02:00:52.070Z,6.10
2019-03-01T02:03:24.103Z,6.16
2019-03-01T02:05:56.060Z,6.29
2019-03-01T02:08:27.904Z,6.35
2019-03-01T02:10:59.842Z,6.26
2019-03-01T02:13:31.650Z,6.27
2019-03-01T02:16:03.482Z,6.22
2019-03-01T02:18:35.392Z,6.22
2019-03-01T02:21:07.239Z,6.29
2019-03-01T02:23:40.164Z,6.23
2019-03-01T02:26:12.268Z,6.23
2019-03-01T02:28:44.127Z,6.21
2019-03-01T02:31:17.488Z,6.18
2019-03-01T02:33:49.405Z,6.20
2019-03-01T02:36:21.264Z,6.26
2019-03-01T02:38:53.065Z,6.32
2019-03-01T02:41:24.892Z,6.42
2019-03-01T02:43:56.737Z,6.41
2019-03-01T02:46:28.573Z,6.32
2019-03-01T02:49:00.377Z,6.29
2019-03-01T02:51:32.159Z,6.22
2019-03-01T02:54:04.045Z,6.20
2019-03-01T02:56:35.869Z,6.25
2019-03-01T02:59:07.725Z,6.31
2019-03-01T03:01:39.541Z,6.40
2019-03-01T03:04:11.376Z,6.41
2019-03-01T03:06:48.742Z,6.37
2019-03-01T03:09:21.541Z,6.36
2019-03-01T03:11:53.363Z,6.31
2019-03-01T03:14:25.324Z,6.29
2019-03-01T03:16:59.604Z,6.21
2019-03-01T03:19:38.717Z,6.24
2019-03-01T03:22:11.661Z,6.23
2019-03-01T03:24:44.799Z,6.29
2019-03-01T03:27:16.947Z,6.32
2019-03-01T03:29:52.896Z,6.39
2019-03-01T03:32:27.438Z,6.38
2019-03-01T03:35:03.941Z,6.36
2019-03-01T03:37:35.841Z,6.38
2019-03-01T03:40:09.345Z,6.39
2019-03-01T03:42:41.381Z,6.39
2019-03-01T03:45:14.024Z,6.31
2019-03-01T03:47:46.063Z,6.35
2019-03-01T03:50:17.951Z,6.35
2019-03-01T03:52:54.149Z,6.27
2019-03-01T03:55:30.029Z,6.18
2019-03-01T03:58:02.497Z,6.17
2019-03-01T04:00:34.438Z,6.16
2019-03-01T04:03:10.441Z,6.21
2019-03-01T04:05:45.403Z,6.23
2019-03-01T04:08:17.500Z,6.18
2019-03-01T04:10:50.616Z,6.17
2019-03-01T04:13:23.018Z,6.18
2019-03-01T04:15:57.793Z,6.19
2019-03-01T04:18:31.629Z,6.21
2019-03-01T04:21:03.458Z,6.16
2019-03-01T04:23:35.807Z,6.19
2019-03-01T04:26:14.119Z,6.22
2019-03-01T04:28:50.435Z,6.22
2019-03-01T04:31:23.786Z,6.35
2019-03-01T04:33:55.638Z,6.39
2019-03-01T04:36:30.746Z,6.35
2019-03-01T04:39:03.501Z,6.33
2019-03-01T04:41:37.568Z,6.33
2019-03-01T04:44:11.748Z,6.27
2019-03-01T04:46:55.824Z,6.38
2019-03-01T04:49:32.290Z,6.34
2019-03-01T04:52:48.081Z,6.32
2019-03-01T04:55:28.756Z,6.22
2019-03-01T04:58:02.399Z,6.24
2019-03-01T05:00:36.979Z,6.21
2019-03-01T05:03:09.814Z,6.15
2019-03-01T05:05:44.727Z,6.11
2019-03-01T05:08:18.155Z,6.04
2019-03-01T05:10:54.626Z,6.10
2019-03-01T05:13:31.510Z,6.11
2019-03-01T05:16:06.293Z,6.15
2019-03-01T05:18:44.375Z,6.15
2019-03-01T05:21:20.371Z,6.17
2019-03-01T05:23:52.665Z,6.21
2019-03-01T05:26:24.883Z,6.18
2019-03-01T05:28:57.276Z,6.15
2019-03-01T05:31:40.784Z,6.13
2019-03-01T05:34:14.530Z,6.19
2019-03-01T05:36:49.641Z,6.10
2019-03-01T05:39:29.807Z,6.04
2019-03-01T05:42:02.151Z,5.99
2019-03-01T05:44:47.009Z,6.01
2019-03-01T05:47:23.570Z,5.99
2019-03-01T05:50:00.446Z,5.86
2019-03-01T05:52:36.733Z,5.83
2019-03-01T05:55:10.311Z,5.85
2019-03-01T05:58:34.324Z,5.85
2019-03-01T06:01:41.607Z,5.83
2019-03-01T06:04:42.511Z,5.80
2019-03-01T06:08:17.144Z,5.79
2019-03-01T06:11:45.351Z,5.81
2019-03-01T06:15:28.058Z,5.79
2019-03-01T06:18:58.342Z,5.87
2019-03-01T06:22:55.220Z,5.91
2019-03-01T06:26:37.300Z,5.95
2019-03-01T06:30:13.132Z,5.99
2019-03-01T06:33:36.925Z,5.98
2019-03-01T06:36:37.434Z,6.04
2019-03-01T06:39:52.483Z,5.98
2019-03-01T06:43:38.030Z,6.05
2019-03-01T06:47:02.461Z,5.98
2019-03-01T06:49:59.802Z,6.02
2019-03-01T06:52:31.815Z,6.12
2019-03-01T06:55:05.885Z,6.11
2019-03-01T06:57:40.282Z,6.18
2019-03-01T07:00:12.457Z,6.15
2019-03-01T07:02:48.735Z,6.10
2019-03-01T07:05:33.158Z,6.19
2019-03-01T07:08:09.226Z,6.20
2019-03-01T07:10:41.321Z,6.26
2019-03-01T07:13:17.381Z,6.27
2019-03-01T07:15:52.457Z,6.28
2019-03-01T07:18:29.291Z,6.44
2019-03-01T07:21:01.158Z,6.44
2019-03-01T07:23:37.178Z,6.47
2019-03-01T07:26:12.840Z,6.42
2019-03-01T07:28:49.427Z,6.50
2019-03-01T07:31:25.617Z,6.53
2019-03-01T07:33:57.836Z,6.56
2019-03-01T07:36:30.903Z,6.57
2019-03-01T07:39:10.923Z,6.57
2019-03-01T07:41:44.327Z,6.65
2019-03-01T07:44:16.699Z,6.63
2019-03-01T07:46:53.287Z,6.62
2019-03-01T07:49:25.586Z,6.67
2019-03-01T07:52:01.720Z,6.69
2019-03-01T07:54:35.999Z,6.72
2019-03-01T07:57:07.933Z,6.87
2019-03-01T07:59:39.845Z,7.05
2019-03-01T08:02:11.718Z,7.13
2019-03-01T08:04:44.611Z,7.22
2019-03-01T08:07:16.481Z,7.30
2019-03-01T08:09:48.296Z,7.34
2019-03-01T08:12:20.105Z,7.32
2019-03-01T08:14:51.988Z,7.29
2019-03-01T08:17:23.872Z,7.28
2019-03-01T08:19:58.734Z,7.29
2019-03-01T08:22:30.227Z,7.23
2019-03-01T08:25:02.697Z,7.20
2019-03-01T08:27:34.723Z,7.19
2019-03-01T08:30:10.500Z,6.98
2019-03-01T08:32:41.904Z,7.02
2019-03-01T08:35:14.633Z,7.02
2019-03-01T08:37:49.811Z,6.71
2019-03-01T08:40:20.046Z,6.57
2019-03-01T08:42:51.933Z,6.53
2019-03-01T08:45:23.898Z,6.57
2019-03-01T08:47:58.908Z,6.64
2019-03-01T08:50:29.492Z,6.67
2019-03-01T08:53:01.405Z,6.69
2019-03-01T08:55:35.420Z,6.61
2019-03-01T08:58:07.233Z,6.56
2019-03-01T09:00:41.178Z,6.42
2019-03-01T09:03:26.801Z,6.28
2019-03-01T09:05:58.753Z,6.17
2019-03-01T09:08:30.657Z,6.14
2019-03-01T09:11:05.546Z,6.05
2019-03-01T09:13:36.360Z,6.05
2019-03-01T09:16:08.354Z,6.10
2019-03-01T09:18:40.331Z,6.07
2019-03-01T09:21:13.587Z,6.15
2019-03-01T09:23:47.926Z,6.18
2019-03-01T09:26:19.920Z,6.18
2019-03-01T09:28:52.852Z,6.12
2019-03-01T09:31:24.914Z,6.20
2019-03-01T09:33:57.402Z,6.18
2019-03-01T09:36:35.972Z,6.13
2019-03-01T09:39:10.962Z,6.08
2019-03-01T09:41:43.049Z,6.04
2019-03-01T09:44:15.040Z,6.11
2019-03-01T09:46:47.138Z,6.05
2019-03-01T09:49:21.419Z,6.15
2019-03-01T09:51:53.866Z,6.44
2019-03-01T09:54:25.796Z,6.57
2019-03-01T09:56:57.862Z,6.61
2019-03-01T09:59:29.800Z,6.70
2019-03-01T10:02:01.993Z,6.79
2019-03-01T10:04:35.091Z,6.80
2019-03-01T10:07:07.114Z,6.89
2019-03-01T10:09:39.245Z,7.17
2019-03-01T10:12:11.404Z,7.41
2019-03-01T10:14:43.464Z,7.60
2019-03-01T10:17:15.418Z,7.54
2019-03-01T10:19:47.302Z,7.62
2019-03-01T10:22:19.216Z,7.64
2019-03-01T10:24:51.152Z,7.46
2019-03-01T10:27:23.032Z,7.45
2019-03-01T10:29:54.870Z,7.53
2019-03-01T10:32:26.752Z,7.63
2019-03-01T10:34:58.700Z,7.64
2019-03-01T10:37:30.546Z,7.50
2019-03-01T10:40:02.561Z,7.40
2019-03-01T10:42:35.552Z,7.43
2019-03-01T10:45:10.461Z,7.44
2019-03-01T10:47:42.527Z,7.44
2019-03-01T10:50:14.729Z,7.47
2019-03-01T10:52:55.066Z,7.47
2019-03-01T10:55:26.959Z,7.51
2019-03-01T10:57:58.828Z,7.55
2019-03-01T11:00:30.740Z,7.60
2019-03-01T11:03:02.627Z,7.57
2019-03-01T11:05:34.487Z,7.69
2019-03-01T11:08:06.332Z,7.79
2019-03-01T11:10:38.865Z,7.86
2019-03-01T11:13:10.836Z,7.84
2019-03-01T11:15:42.672Z,7.77
2019-03-01T11:18:14.537Z,7.74
2019-03-01T11:20:46.477Z,7.66
2019-03-01T11:23:18.411Z,7.69
2019-03-01T11:25:50.341Z,7.64
2019-03-01T11:28:22.187Z,7.45
2019-03-01T11:30:54.111Z,7.48
2019-03-01T11:33:25.987Z,7.64
2019-03-01T11:35:57.945Z,7.49
2019-03-01T11:38:29.983Z,7.45
2019-03-01T11:41:02.102Z,7.53
2019-03-01T11:43:34.131Z,7.59
2019-03-01T11:46:06.030Z,7.57
2019-03-01T11:48:37.973Z,7.53
2019-03-01T11:51:10.031Z,7.60
2019-03-01T11:53:42.005Z,7.74
2019-03-01T11:56:13.862Z,8.12
2019-03-01T11:58:45.722Z,8.31
2019-03-01T12:01:18.866Z,8.40
2019-03-01T12:03:50.845Z,8.15
2019-03-01T12:06:22.731Z,7.87
2019-03-01T12:08:54.695Z,8.08
2019-03-01T12:11:26.578Z,7.79
2019-03-01T12:13:58.537Z,7.70
2019-03-01T12:16:30.473Z,7.80
2019-03-01T12:19:02.400Z,7.77
2019-03-01T12:21:34.264Z,7.63
2019-03-01T12:24:06.287Z,7.45
2019-03-01T12:26:38.137Z,7.47
2019-03-01T12:29:10.171Z,7.32
2019-03-01T12:31:42.273Z,7.45
2019-03-01T12:34:14.235Z,7.37
2019-03-01T12:36:46.207Z,7.06
2019-03-01T12:39:18.270Z,7.26
2019-03-01T12:41:50.248Z,7.12
2019-03-01T12:44:22.191Z,7.22
2019-03-01T12:46:55.706Z,7.38
2019-03-01T12:49:27.736Z,7.33
2019-03-01T12:51:59.691Z,7.33
2019-03-01T12:54:31.773Z,7.27
2019-03-01T12:57:04.014Z,7.09
2019-03-01T12:59:36.140Z,7.16
2019-03-01T13:02:08.311Z,7.28
2019-03-01T13:04:40.265Z,7.33
2019-03-01T13:07:13.219Z,7.14
2019-03-01T13:09:46.313Z,7.01
2019-03-01T13:12:18.364Z,7.04
2019-03-01T13:14:50.764Z,7.00
2019-03-01T13:17:22.743Z,7.05
2019-03-01T13:19:57.538Z,7.04
2019-03-01T13:22:28.674Z,6.73
2019-03-01T13:25:00.722Z,6.79
2019-03-01T13:27:33.030Z,6.89
2019-03-01T13:30:05.989Z,6.93
2019-03-01T13:32:40.027Z,6.88
2019-03-01T13:35:12.743Z,7.07
2019-03-01T13:37:44.904Z,7.20
2019-03-01T13:40:20.838Z,7.28
2019-03-01T13:42:52.322Z,7.01
2019-03-01T13:45:24.427Z,6.98
2019-03-01T13:47:57.367Z,6.64
2019-03-01T13:50:29.478Z,6.67
2019-03-01T13:53:01.621Z,7.06
2019-03-01T13:55:33.677Z,7.33
2019-03-01T13:58:08.202Z,7.41
2019-03-01T14:00:42.052Z,7.52
2019-03-01T14:03:14.350Z,7.51
2019-03-01T14:05:47.299Z,7.31
2019-03-01T14:08:19.637Z,6.86
2019-03-01T14:10:51.528Z,7.01
2019-03-01T14:13:23.350Z,7.37
2019-03-01T14:15:55.561Z,7.19
2019-03-01T14:18:27.841Z,7.19
2019-03-01T14:20:59.691Z,7.47
2019-03-01T14:23:32.172Z,7.30
2019-03-01T14:26:04.138Z,7.28
2019-03-01T14:28:38.057Z,7.06
2019-03-01T14:31:09.643Z,6.90
2019-03-01T14:33:41.520Z,6.59
2019-03-01T14:36:13.450Z,6.75
2019-03-01T14:38:45.326Z,7.00
2019-03-01T14:41:17.359Z,6.74
2019-03-01T14:43:49.308Z,6.78
2019-03-01T14:46:22.105Z,6.81
2019-03-01T14:48:54.126Z,6.63
2019-03-01T14:51:26.027Z,6.49
2019-03-01T14:53:58.019Z,6.25
2019-03-01T14:56:36.268Z,6.22
2019-03-01T14:59:42.528Z,6.23
2019-03-01T15:03:15.916Z,6.24
2019-03-01T15:05:44.546Z,6.10
2019-03-01T15:08:16.490Z,6.53
2019-03-01T15:10:48.474Z,6.22
2019-03-01T15:13:20.573Z,6.34
2019-03-01T15:15:52.467Z,6.31
2019-03-01T15:18:25.131Z,6.13
2019-03-01T15:21:02.385Z,6.27
2019-03-01T15:23:30.982Z,6.38
2019-03-01T15:26:02.990Z,5.90
2019-03-01T15:28:46.484Z,6.10
2019-03-01T15:31:18.378Z,5.95
2019-03-01T15:33:50.511Z,5.64
2019-03-01T15:36:22.686Z,5.60
2019-03-01T15:38:54.733Z,5.80
2019-03-01T15:41:26.588Z,5.88
2019-03-01T15:43:58.578Z,5.67
2019-03-01T15:46:30.458Z,5.63
2019-03-01T15:49:02.422Z,5.72
2019-03-01T15:51:38.232Z,5.79
2019-03-01T15:54:10.217Z,5.94
2019-03-01T15:56:42.979Z,5.92
2019-03-01T15:59:15.806Z,5.85
2019-03-01T16:01:48.191Z,5.99
2019-03-01T16:04:20.185Z,6.06
2019-03-01T16:06:55.292Z,5.87
2019-03-01T16:09:26.408Z,5.97
2019-03-01T16:11:58.525Z,5.85
2019-03-01T16:14:30.459Z,5.83
2019-03-01T16:17:02.661Z,5.72
2019-03-01T16:19:36.162Z,5.87
2019-03-01T16:22:08.091Z,5.73
2019-03-01T16:24:41.580Z,5.61
2019-03-01T16:27:15.324Z,5.69
2019-03-01T16:29:47.455Z,5.41
2019-03-01T16:32:19.405Z,5.52
2019-03-01T16:34:51.492Z,5.68
2019-03-01T16:37:26.075Z,5.59
2019-03-01T16:40:00.241Z,5.50
2019-03-01T16:42:38.236Z,5.42
2019-03-01T16:45:17.658Z,5.23
2019-03-01T16:48:19.447Z,5.23
2019-03-01T16:51:18.697Z,5.28
2019-03-01T16:53:50.752Z,5.41
2019-03-01T16:56:22.710Z,5.21
2019-03-01T16:58:54.688Z,5.27
2019-03-01T17:01:29.801Z,5.23
2019-03-01T17:04:00.297Z,5.27
2019-03-01T17:06:32.377Z,5.25
2019-03-01T17:09:06.286Z,5.26
2019-03-01T17:11:41.489Z,5.20
2019-03-01T17:14:12.572Z,5.34
2019-03-01T17:16:52.270Z,5.18
2019-03-01T17:19:27.457Z,5.27
2019-03-01T17:21:58.481Z,5.25
2019-03-01T17:24:32.672Z,5.13
2019-03-01T17:27:05.726Z,5.04
2019-03-01T17:29:39.903Z,5.10
2019-03-01T17:32:12.316Z,5.25
2019-03-01T17:34:47.483Z,5.15
2019-03-01T17:37:19.648Z,5.33
2019-03-01T17:39:53.162Z,5.18
2019-03-01T17:42:25.816Z,5.17
2019-03-01T17:44:57.952Z,5.17
2019-03-01T17:47:30.502Z,5.21
2019-03-01T17:50:05.548Z,5.28
2019-03-01T17:52:37.319Z,5.09
2019-03-01T17:55:13.590Z,5.13
2019-03-01T18:02:08.214Z,5.16
2019-03-01T18:05:43.380Z,5.13
2019-03-01T18:08:21.399Z,5.03
2019-03-01T18:10:53.588Z,5.01
2019-03-01T18:13:27.065Z,4.98
2019-03-01T18:16:01.135Z,4.91
2019-03-01T18:18:35.498Z,4.79
2019-03-01T18:21:10.156Z,4.80
2019-03-01T18:23:47.146Z,4.86
2019-03-01T18:26:23.964Z,4.81
2019-03-01T18:29:47.395Z,4.80
2019-03-01T19:54:08.322Z,4.59
2019-03-01T19:57:59.481Z,4.56
2019-03-01T20:04:36.808Z,4.50
2019-03-01T20:09:23.494Z,4.53
2019-03-01T20:10:47.613Z,4.62
2019-03-01T20:13:33.099Z,4.55
2019-03-01T20:16:05.363Z,4.61
2019-03-01T20:19:08.666Z,4.69
2019-03-01T20:21:41.403Z,4.67
2019-03-01T20:24:40.412Z,4.60
2019-03-01T20:28:24.761Z,4.64
2019-03-01T20:30:45.801Z,4.62
2019-03-01T20:34:53.498Z,4.57
2019-03-01T20:36:58.481Z,4.54
2019-03-01T20:39:34.662Z,4.50
2019-03-01T20:42:31.765Z,4.42
2019-03-01T20:45:09.184Z,4.48
2019-03-01T20:47:42.539Z,4.47
2019-03-01T20:50:15.663Z,4.44
2019-03-01T20:53:02.584Z,4.37
2019-03-01T20:55:38.386Z,4.36
2019-03-01T20:58:11.226Z,4.37
2019-03-01T21:00:43.581Z,4.37
2019-03-01T21:03:16.135Z,4.35
2019-03-01T21:05:50.098Z,4.40
2019-03-01T21:08:22.511Z,4.38
2019-03-01T21:10:57.741Z,4.38
2019-03-01T21:13:32.016Z,4.37
2019-03-01T21:16:05.418Z,4.34
2019-03-01T21:18:37.509Z,4.37
2019-03-01T21:21:09.524Z,4.31
2019-03-01T21:23:41.463Z,4.36
2019-03-01T21:26:15.615Z,4.34
2019-03-01T21:28:47.119Z,4.31
2019-03-01T21:31:18.973Z,4.38
2019-03-01T21:33:54.939Z,4.32
2019-03-01T21:36:27.128Z,4.33
2019-03-01T21:38:59.261Z,4.32
2019-03-01T21:41:31.291Z,4.27
2019-03-01T21:44:03.284Z,4.25
2019-03-01T21:46:35.414Z,4.25
2019-03-01T21:49:07.932Z,4.21
2019-03-01T21:51:39.936Z,4.22
2019-03-01T21:54:12.644Z,4.20
2019-03-01T21:56:55.395Z,4.17
2019-03-01T21:59:18.878Z,4.16
2019-03-01T22:01:52.640Z,4.24
2019-03-01T22:04:24.292Z,4.26
2019-03-01T22:07:01.872Z,4.22
2019-03-01T22:09:30.732Z,4.23
2019-03-01T22:12:02.732Z,4.20
2019-03-01T22:14:34.600Z,4.27
2019-03-01T22:17:06.491Z,4.24
2019-03-01T22:19:38.873Z,4.27
2019-03-01T22:22:10.722Z,4.27
2019-03-01T22:24:42.610Z,4.31
2019-03-01T22:27:14.426Z,4.29
2019-03-01T22:29:47.345Z,4.25
2019-03-01T22:32:19.848Z,4.34
2019-03-01T22:34:51.695Z,4.26
2019-03-01T22:37:24.791Z,4.26
2019-03-01T22:39:57.192Z,4.29
2019-03-01T22:42:29.054Z,4.31
2019-03-01T22:45:00.894Z,4.29
2019-03-01T22:47:36.003Z,4.28
2019-03-01T22:50:07.908Z,4.27
2019-03-01T22:52:39.816Z,4.29
2019-03-01T22:55:13.441Z,4.22
2019-03-01T22:57:45.290Z,4.27
2019-03-01T23:01:12.234Z,4.26
2019-03-01T23:04:08.149Z,4.29
2019-03-01T23:06:40.020Z,4.25
2019-03-01T23:09:20.425Z,4.28
2019-03-01T23:11:52.209Z,4.26
2019-03-01T23:14:24.041Z,4.27
2019-03-01T23:16:55.849Z,4.23
2019-03-01T23:19:27.677Z,4.25
2019-03-01T23:22:00.665Z,4.19
2019-03-01T23:24:35.137Z,4.21
2019-03-01T23:27:06.009Z,4.23
2019-03-01T23:29:37.892Z,4.20
2019-03-01T23:32:11.868Z,4.19
2019-03-01T23:34:43.799Z,4.21
2019-03-01T23:37:15.846Z,4.14
2019-03-01T23:39:47.724Z,4.10
2019-03-01T23:42:20.885Z,4.08
2019-03-01T23:44:53.213Z,4.12
2019-03-01T23:47:25.097Z,4.15
2019-03-01T23:49:59.299Z,4.16
2019-03-01T23:52:30.415Z,4.22
2019-03-01T23:55:02.202Z,4.19
2019-03-01T23:57:34.113Z,4.17
